Time;durP1;ratioP1;P1;durP2;ratioP2;P2;SDS_P1;SDS_P2;PMS_P1;PMS_P2;Temp;Humidity;BMP_temperature;BMP_pressure;BME280_temperature;BME280_humidity;BME280_pressure;Samples;Min_cycle;Max_cycle;Signal;HPM_P1;HPM_P2
2023/05/22 00:00:06;;;;;;;4.03;2.95;;;;;;;;;;5053664;28;20112;-76
2023/05/22 00:02:37;;;;;;;4.32;3.25;;;;;;;;;;5030070;28;20064;-75
2023/05/22 00:05:05;;;;;;;4.03;3.13;;;;;;;;;;5054562;28;20029;-75
2023/05/22 00:07:31;;;;;;;4.90;3.25;;;;;;;;;;5036512;28;20068;-75
2023/05/22 00:09:56;;;;;;;3.78;2.97;;;;;;;;;;5054484;28;20049;-75
2023/05/22 00:12:22;;;;;;;5.22;3.55;;;;;;;;;;5020052;28;20064;-76
2023/05/22 00:14:47;;;;;;;4.28;3.20;;;;;;;;;;5054381;28;20027;-75
2023/05/22 00:17:13;;;;;;;3.92;3.05;;;;;;;;;;5054332;28;20031;-75
2023/05/22 00:19:41;;;;;;;3.80;3.38;;;;;;;;;;5036602;28;20025;-75
2023/05/22 00:22:08;;;;;;;5.47;3.35;;;;;;;;;;5036362;28;20035;-75
2023/05/22 00:24:33;;;;;;;4.05;2.75;;;;;;;;;;5036715;28;20028;-75
2023/05/22 00:26:59;;;;;;;4.28;2.97;;;;;;;;;;5019760;28;20120;-75
2023/05/22 00:29:24;;;;;;;4.78;3.50;;;;;;;;;;5054032;28;20028;-75
2023/05/22 00:31:50;;;;;;;5.57;3.30;;;;;;;;;;5036222;28;20025;-76
2023/05/22 00:34:15;;;;;;;3.75;2.92;;;;;;;;;;5019582;28;20055;-75
2023/05/22 00:36:40;;;;;;;4.82;3.22;;;;;;;;;;5036118;28;20403;-75
2023/05/22 00:39:06;;;;;;;4.38;3.40;;;;;;;;;;5054284;28;20036;-75
2023/05/22 00:41:32;;;;;;;6.22;3.22;;;;;;;;;;5053888;28;20039;-76
2023/05/22 00:43:59;;;;;;;4.90;3.35;;;;;;;;;;5036156;28;20033;-75
2023/05/22 00:46:24;;;;;;;4.20;3.10;;;;;;;;;;5054325;28;20454;-75
2023/05/22 00:48:51;;;;;;;4.65;3.13;;;;;;;;;;5036276;28;20008;-75
2023/05/22 00:51:18;;;;;;;3.72;2.85;;;;;;;;;;5035752;28;20503;-75
2023/05/22 00:53:45;;;;;;;5.95;3.42;;;;;;;;;;5035642;28;20475;-75
2023/05/22 00:56:11;;;;;;;5.88;2.97;;;;;;;;;;5035830;28;20395;-75
2023/05/22 00:58:36;;;;;;;5.68;3.28;;;;;;;;;;5053559;28;20021;-75
2023/05/22 01:01:02;;;;;;;4.30;3.10;;;;;;;;;;5053616;28;20075;-76
2023/05/22 01:03:28;;;;;;;4.10;2.80;;;;;;;;;;5019015;28;20079;-76
2023/05/22 01:05:54;;;;;;;3.47;3.17;;;;;;;;;;5035856;28;20037;-76
2023/05/22 01:08:20;;;;;;;4.70;3.30;;;;;;;;;;5035993;28;20464;-76
2023/05/22 01:10:46;;;;;;;3.28;2.97;;;;;;;;;;5035617;28;20024;-75
2023/05/22 01:13:31;;;;;;;5.78;3.95;;;;;;;;;;5035625;28;20033;-75
2023/05/22 01:16:07;;;;;;;3.67;2.95;;;;;;;;;;5035660;28;20028;-75
2023/05/22 01:18:40;;;;;;;5.05;3.40;;;;;;;;;;5053518;28;20020;-76
2023/05/22 01:21:11;;;;;;;4.32;3.05;;;;;;;;;;5035564;28;20033;-76
2023/05/22 01:23:54;;;;;;;4.82;3.20;;;;;;;;;;5035503;28;20070;-75
2023/05/22 01:26:57;;;;;;;4.30;3.20;;;;;;;;;;5035630;28;20021;-75
2023/05/22 01:29:25;;;;;;;3.85;2.90;;;;;;;;;;5035718;28;20025;-76
2023/05/22 01:31:51;;;;;;;4.97;3.08;;;;;;;;;;5036242;28;20166;-75
2023/05/22 01:34:18;;;;;;;7.18;3.30;;;;;;;;;;5036639;28;20446;-75
2023/05/22 01:36:45;;;;;;;4.63;2.97;;;;;;;;;;5019536;28;20032;-76
2023/05/22 01:39:11;;;;;;;6.50;3.53;;;;;;;;;;5036350;28;20033;-76
2023/05/22 01:41:37;;;;;;;3.75;3.22;;;;;;;;;;5054474;28;20111;-75
2023/05/22 01:44:03;;;;;;;4.72;3.40;;;;;;;;;;5035900;28;20033;-75
2023/05/22 01:46:29;;;;;;;5.03;3.20;;;;;;;;;;5019448;28;20112;-75
2023/05/22 01:48:55;;;;;;;6.43;3.35;;;;;;;;;;5019060;28;20028;-75
2023/05/22 01:51:50;;;;;;;4.93;3.40;;;;;;;;;;5035862;28;20021;-75
2023/05/22 01:54:23;;;;;;;4.97;3.55;;;;;;;;;;5035736;28;20028;-75
2023/05/22 01:56:55;;;;;;;4.65;3.30;;;;;;;;;;5035509;28;20041;-75
2023/05/22 01:59:46;;;;;;;3.63;2.88;;;;;;;;;;5035930;28;20029;-75
2023/05/22 02:02:14;;;;;;;4.13;3.15;;;;;;;;;;5035100;28;20073;-75
2023/05/22 02:04:44;;;;;;;4.57;3.22;;;;;;;;;;5019816;28;20025;-76
2023/05/22 02:07:11;;;;;;;5.18;3.50;;;;;;;;;;5039012;28;20471;-75
2023/05/22 02:09:38;;;;;;;4.60;3.08;;;;;;;;;;5038886;28;20037;-76
2023/05/22 02:12:03;;;;;;;4.60;3.30;;;;;;;;;;5039017;28;20028;-75
2023/05/22 02:14:29;;;;;;;3.90;2.85;;;;;;;;;;5056714;28;20029;-75
2023/05/22 02:16:55;;;;;;;3.42;2.80;;;;;;;;;;5022215;28;20032;-76
2023/05/22 02:19:20;;;;;;;4.85;3.08;;;;;;;;;;5038951;28;20028;-75
2023/05/22 02:21:46;;;;;;;5.25;3.25;;;;;;;;;;5056630;28;20036;-75
2023/05/22 02:24:11;;;;;;;4.88;3.20;;;;;;;;;;5038711;28;20028;-75
2023/05/22 02:26:38;;;;;;;4.18;3.28;;;;;;;;;;5056461;28;20025;-76
2023/05/22 02:29:03;;;;;;;5.07;3.13;;;;;;;;;;5056481;28;20364;-77
2023/05/22 02:31:29;;;;;;;3.85;2.90;;;;;;;;;;5039242;28;20029;-77
2023/05/22 02:33:55;;;;;;;4.55;3.00;;;;;;;;;;5038898;28;20032;-75
2023/05/22 02:36:21;;;;;;;9.00;3.42;;;;;;;;;;5056367;28;20033;-77
2023/05/22 02:38:47;;;;;;;4.85;3.38;;;;;;;;;;5022171;28;20021;-75
2023/05/22 02:41:12;;;;;;;5.28;3.35;;;;;;;;;;5021917;28;20430;-77
2023/05/22 02:43:37;;;;;;;4.07;3.30;;;;;;;;;;5056262;28;20040;-77
2023/05/22 02:46:03;;;;;;;5.28;3.13;;;;;;;;;;5022029;28;20036;-75
2023/05/22 02:48:28;;;;;;;6.10;3.58;;;;;;;;;;5022380;28;20076;-76
2023/05/22 02:50:54;;;;;;;5.50;3.25;;;;;;;;;;5038277;28;20029;-75
2023/05/22 02:53:19;;;;;;;4.00;3.60;;;;;;;;;;5038576;28;20108;-76
2023/05/22 02:55:45;;;;;;;6.07;3.63;;;;;;;;;;5057100;28;20043;-77
2023/05/22 02:58:11;;;;;;;3.95;3.20;;;;;;;;;;5057485;28;20056;-77
2023/05/22 03:00:37;;;;;;;3.55;3.05;;;;;;;;;;5056264;28;20467;-75
2023/05/22 03:03:03;;;;;;;5.15;3.13;;;;;;;;;;5037986;28;20057;-76
2023/05/22 03:05:28;;;;;;;4.32;3.42;;;;;;;;;;5056125;28;20040;-75
2023/05/22 03:07:54;;;;;;;3.88;3.25;;;;;;;;;;5037782;28;20475;-75
2023/05/22 03:10:20;;;;;;;3.65;3.08;;;;;;;;;;5038234;28;20029;-75
2023/05/22 03:12:46;;;;;;;4.22;3.17;;;;;;;;;;5038294;28;20035;-75
2023/05/22 03:15:12;;;;;;;6.18;3.10;;;;;;;;;;5037571;28;20033;-76
2023/05/22 03:17:37;;;;;;;4.05;3.40;;;;;;;;;;5037852;28;20541;-75
2023/05/22 03:20:04;;;;;;;5.07;3.40;;;;;;;;;;5055411;28;20031;-75
2023/05/22 03:22:29;;;;;;;5.63;3.92;;;;;;;;;;5021254;28;20029;-75
2023/05/22 03:24:55;;;;;;;4.88;3.47;;;;;;;;;;5037711;28;20025;-75
2023/05/22 03:27:20;;;;;;;6.82;4.50;;;;;;;;;;5038124;28;20091;-75
2023/05/22 03:29:45;;;;;;;4.13;3.25;;;;;;;;;;5037520;28;20104;-75
2023/05/22 03:32:11;;;;;;;5.22;3.63;;;;;;;;;;5038063;28;20040;-76
2023/05/22 03:34:36;;;;;;;5.47;3.70;;;;;;;;;;5055206;28;20029;-75
2023/05/22 03:37:02;;;;;;;4.75;3.33;;;;;;;;;;5037942;28;20445;-75
2023/05/22 03:39:27;;;;;;;3.80;3.50;;;;;;;;;;5020792;28;20369;-75
2023/05/22 03:41:53;;;;;;;4.18;3.55;;;;;;;;;;5037522;28;20033;-75
2023/05/22 03:44:18;;;;;;;5.47;3.55;;;;;;;;;;5036969;28;20033;-75
2023/05/22 03:46:43;;;;;;;4.57;3.67;;;;;;;;;;5037173;28;20024;-76
2023/05/22 03:49:09;;;;;;;6.28;3.75;;;;;;;;;;5037106;28;20479;-75
2023/05/22 03:51:34;;;;;;;4.05;3.20;;;;;;;;;;5021097;28;20039;-75
2023/05/22 03:54:00;;;;;;;4.82;3.80;;;;;;;;;;5054733;28;20067;-75
2023/05/22 03:56:25;;;;;;;4.20;3.45;;;;;;;;;;5055228;28;20056;-75
2023/05/22 03:58:51;;;;;;;4.25;3.38;;;;;;;;;;5054711;28;20082;-76
2023/05/22 04:01:16;;;;;;;4.70;3.67;;;;;;;;;;5037522;28;20049;-76
2023/05/22 04:03:42;;;;;;;4.82;3.35;;;;;;;;;;5036741;28;20055;-75
2023/05/22 04:06:07;;;;;;;8.63;4.30;;;;;;;;;;5037259;28;20025;-77
2023/05/22 04:08:33;;;;;;;9.15;4.70;;;;;;;;;;5022084;28;20029;-78
2023/05/22 04:10:58;;;;;;;8.20;4.47;;;;;;;;;;5058527;28;20405;-77
2023/05/22 04:13:25;;;;;;;8.18;4.20;;;;;;;;;;5022925;28;20180;-77
2023/05/22 04:15:52;;;;;;;9.82;4.60;;;;;;;;;;5039642;28;20029;-77
2023/05/22 04:18:18;;;;;;;7.47;4.63;;;;;;;;;;5055874;28;20021;-77
2023/05/22 04:20:43;;;;;;;8.60;4.78;;;;;;;;;;5054602;28;20032;-77
2023/05/22 04:23:08;;;;;;;8.80;5.00;;;;;;;;;;5055304;28;20535;-78
2023/05/22 04:25:35;;;;;;;8.32;4.60;;;;;;;;;;5037202;28;20059;-77
2023/05/22 04:28:03;;;;;;;7.18;4.30;;;;;;;;;;5053437;28;20391;-78
2023/05/22 04:30:32;;;;;;;10.43;5.72;;;;;;;;;;5036699;28;20043;-77
2023/05/22 04:32:59;;;;;;;12.57;5.28;;;;;;;;;;5053821;28;20091;-78
2023/05/22 04:35:24;;;;;;;12.63;5.40;;;;;;;;;;5035827;28;20116;-78
2023/05/22 04:37:50;;;;;;;9.35;5.35;;;;;;;;;;5036520;28;20137;-77
2023/05/22 04:40:15;;;;;;;12.70;5.60;;;;;;;;;;5054510;28;20439;-77
2023/05/22 04:42:41;;;;;;;11.07;5.18;;;;;;;;;;5035963;28;20100;-77
2023/05/22 04:45:08;;;;;;;10.50;5.07;;;;;;;;;;5035725;28;20059;-79
2023/05/22 04:47:36;;;;;;;9.52;4.88;;;;;;;;;;5035596;28;20028;-81
2023/05/22 04:50:02;;;;;;;9.77;4.88;;;;;;;;;;5019672;28;20044;-80
2023/05/22 04:52:28;;;;;;;9.15;4.90;;;;;;;;;;5020283;28;20025;-80
2023/05/22 04:54:54;;;;;;;11.30;5.05;;;;;;;;;;5052990;28;20032;-81
2023/05/22 04:57:20;;;;;;;14.13;6.07;;;;;;;;;;5035549;28;20349;-80
2023/05/22 04:59:47;;;;;;;19.63;7.32;;;;;;;;;;5035695;28;20108;-80
2023/05/22 05:02:13;;;;;;;23.50;8.15;;;;;;;;;;5053866;28;20102;-80
2023/05/22 05:04:38;;;;;;;26.40;8.52;;;;;;;;;;5036428;28;20029;-80
2023/05/22 05:07:04;;;;;;;27.25;8.80;;;;;;;;;;5053428;28;20179;-80
2023/05/22 05:09:30;;;;;;;22.70;9.15;;;;;;;;;;5036102;28;20037;-79
2023/05/22 05:11:56;;;;;;;22.27;8.70;;;;;;;;;;5035286;28;20021;-79
2023/05/22 05:14:21;;;;;;;21.75;8.23;;;;;;;;;;5035749;28;20024;-79
2023/05/22 05:16:46;;;;;;;25.13;8.82;;;;;;;;;;5019106;28;20110;-78
2023/05/22 05:19:12;;;;;;;24.63;9.10;;;;;;;;;;5037279;28;20037;-81
2023/05/22 05:21:38;;;;;;;19.23;8.82;;;;;;;;;;5021715;28;20086;-80
2023/05/22 05:24:04;;;;;;;22.10;9.50;;;;;;;;;;5039396;28;20057;-80
2023/05/22 05:26:30;;;;;;;23.50;8.75;;;;;;;;;;5041627;28;20063;-79
2023/05/22 05:28:55;;;;;;;21.77;9.40;;;;;;;;;;5059028;28;20025;-80
2023/05/22 05:31:21;;;;;;;17.02;8.13;;;;;;;;;;5040240;28;20029;-80
2023/05/22 05:33:47;;;;;;;17.73;8.70;;;;;;;;;;5040658;28;20025;-80
2023/05/22 05:36:13;;;;;;;17.63;8.60;;;;;;;;;;5058658;28;20028;-80
2023/05/22 05:38:39;;;;;;;17.85;8.32;;;;;;;;;;5038931;28;20021;-80
2023/05/22 05:41:04;;;;;;;14.95;8.02;;;;;;;;;;5036092;28;20476;-79
2023/05/22 05:43:30;;;;;;;16.50;7.78;;;;;;;;;;5036203;28;20081;-79
2023/05/22 05:45:56;;;;;;;15.43;7.50;;;;;;;;;;5035831;28;20044;-79
2023/05/22 05:48:21;;;;;;;15.35;7.25;;;;;;;;;;5037126;28;20490;-79
2023/05/22 05:50:47;;;;;;;15.25;7.60;;;;;;;;;;5019528;28;20047;-79
2023/05/22 05:53:12;;;;;;;12.27;6.38;;;;;;;;;;5035816;28;20031;-79
2023/05/22 05:55:37;;;;;;;13.88;6.65;;;;;;;;;;5037771;28;20498;-79
2023/05/22 05:58:03;;;;;;;14.18;6.60;;;;;;;;;;5020938;28;20507;-80
2023/05/22 06:00:28;;;;;;;11.68;6.70;;;;;;;;;;5053168;28;20033;-79
2023/05/22 06:02:54;;;;;;;16.33;6.70;;;;;;;;;;5018324;28;20053;-79
2023/05/22 06:05:21;;;;;;;12.80;6.18;;;;;;;;;;5018924;28;20033;-80
2023/05/22 06:07:47;;;;;;;14.18;6.20;;;;;;;;;;5035140;28;20033;-79
2023/05/22 06:10:12;;;;;;;11.93;6.50;;;;;;;;;;5036135;28;20024;-79
2023/05/22 06:12:38;;;;;;;9.65;6.03;;;;;;;;;;5053147;28;20033;-79
2023/05/22 06:15:04;;;;;;;11.13;5.95;;;;;;;;;;5035265;28;20044;-79
2023/05/22 06:17:30;;;;;;;12.45;5.90;;;;;;;;;;5019303;28;20029;-79
2023/05/22 06:19:56;;;;;;;10.18;5.60;;;;;;;;;;5035716;28;20029;-79
2023/05/22 06:22:25;;;;;;;8.98;5.53;;;;;;;;;;5026359;28;20033;-79
2023/05/22 06:24:53;;;;;;;13.98;5.63;;;;;;;;;;5017654;28;20116;-79
2023/05/22 06:27:21;;;;;;;8.55;5.57;;;;;;;;;;5038567;28;20100;-80
2023/05/22 06:29:47;;;;;;;7.05;5.45;;;;;;;;;;5057780;28;20025;-80
2023/05/22 06:32:12;;;;;;;9.30;5.13;;;;;;;;;;5039829;28;20099;-80
2023/05/22 06:34:38;;;;;;;7.35;5.22;;;;;;;;;;5043830;28;20013;-79
2023/05/22 06:37:04;;;;;;;9.00;5.50;;;;;;;;;;5039965;28;20091;-80
2023/05/22 06:39:30;;;;;;;9.20;5.15;;;;;;;;;;5021797;28;20037;-80
2023/05/22 06:41:55;;;;;;;7.45;5.10;;;;;;;;;;5055095;28;20029;-80
2023/05/22 06:44:20;;;;;;;7.47;5.10;;;;;;;;;;5057577;28;20387;-80
2023/05/22 06:46:46;;;;;;;6.50;5.00;;;;;;;;;;5025039;28;20036;-80
2023/05/22 06:49:11;;;;;;;8.45;5.25;;;;;;;;;;5041141;28;20549;-80
2023/05/22 06:51:37;;;;;;;8.48;5.15;;;;;;;;;;5043462;28;20108;-80
2023/05/22 06:54:05;;;;;;;6.68;5.47;;;;;;;;;;5044940;28;20029;-80
2023/05/22 06:56:31;;;;;;;5.72;4.70;;;;;;;;;;5062902;28;20084;-80
2023/05/22 06:58:57;;;;;;;7.40;4.80;;;;;;;;;;5043932;28;20052;-80
2023/05/22 07:01:23;;;;;;;6.15;4.50;;;;;;;;;;5059627;28;20062;-81
2023/05/22 07:03:48;;;;;;;8.38;4.82;;;;;;;;;;5042300;28;20052;-80
2023/05/22 07:06:14;;;;;;;7.25;4.90;;;;;;;;;;5039901;28;20122;-82
2023/05/22 07:08:39;;;;;;;8.55;4.80;;;;;;;;;;5037986;28;20040;-81
2023/05/22 07:11:06;;;;;;;5.50;4.25;;;;;;;;;;5038236;28;20487;-81
2023/05/22 07:13:31;;;;;;;6.05;4.65;;;;;;;;;;5038311;28;20107;-81
2023/05/22 07:15:57;;;;;;;4.18;3.78;;;;;;;;;;5037994;28;20056;-81
2023/05/22 07:18:22;;;;;;;8.10;3.88;;;;;;;;;;5038002;28;20036;-81
2023/05/22 07:20:48;;;;;;;4.90;4.00;;;;;;;;;;5038058;28;20039;-81
2023/05/22 07:23:13;;;;;;;4.25;3.53;;;;;;;;;;5021278;28;20083;-82
2023/05/22 07:25:39;;;;;;;7.10;3.80;;;;;;;;;;5037892;28;20033;-81
2023/05/22 07:28:07;;;;;;;6.05;4.03;;;;;;;;;;5037799;28;20056;-81
2023/05/22 07:30:35;;;;;;;4.35;3.80;;;;;;;;;;5037527;28;20104;-81
2023/05/22 07:33:00;;;;;;;4.55;3.53;;;;;;;;;;5055607;28;20474;-82
2023/05/22 07:35:26;;;;;;;4.45;3.75;;;;;;;;;;5021197;28;20180;-82
2023/05/22 07:37:51;;;;;;;6.50;4.35;;;;;;;;;;5037767;28;20055;-82
2023/05/22 07:40:16;;;;;;;7.03;4.45;;;;;;;;;;5021547;28;20407;-82
2023/05/22 07:42:42;;;;;;;9.35;4.50;;;;;;;;;;5055450;28;20036;-82
2023/05/22 07:45:08;;;;;;;4.32;3.85;;;;;;;;;;5055595;28;20411;-81
2023/05/22 07:47:33;;;;;;;5.13;4.22;;;;;;;;;;5037419;28;20029;-82
2023/05/22 07:49:59;;;;;;;6.55;4.05;;;;;;;;;;5037450;28;20068;-82
2023/05/22 07:52:24;;;;;;;7.93;4.70;;;;;;;;;;5020898;28;20502;-82
2023/05/22 07:54:50;;;;;;;6.07;4.78;;;;;;;;;;5037959;28;20116;-81
2023/05/22 07:57:16;;;;;;;7.55;4.60;;;;;;;;;;5037905;28;20025;-82
2023/05/22 07:59:42;;;;;;;6.05;4.10;;;;;;;;;;5021986;28;20518;-82
2023/05/22 08:02:08;;;;;;;7.43;4.85;;;;;;;;;;5021283;28;20065;-82
2023/05/22 08:04:34;;;;;;;10.45;5.57;;;;;;;;;;5025189;28;20025;-81
2023/05/22 08:07:03;;;;;;;10.20;5.20;;;;;;;;;;5046885;28;20055;-81
2023/05/22 08:09:28;;;;;;;7.50;4.93;;;;;;;;;;5029844;28;20024;-81
2023/05/22 08:11:54;;;;;;;9.70;5.25;;;;;;;;;;5062659;28;20080;-80
2023/05/22 08:14:20;;;;;;;8.60;5.03;;;;;;;;;;5043464;28;20025;-80
2023/05/22 08:16:46;;;;;;;7.18;5.25;;;;;;;;;;5045455;28;20031;-81
2023/05/22 08:19:11;;;;;;;7.90;5.10;;;;;;;;;;5062453;28;20124;-80
2023/05/22 08:21:37;;;;;;;11.65;5.45;;;;;;;;;;5044940;28;20063;-80
2023/05/22 08:24:02;;;;;;;8.02;5.20;;;;;;;;;;5042664;28;20124;-81
2023/05/22 08:26:28;;;;;;;9.77;5.50;;;;;;;;;;5059766;28;20063;-81
2023/05/22 08:28:53;;;;;;;8.57;5.05;;;;;;;;;;5037074;28;20029;-80
2023/05/22 08:31:19;;;;;;;7.25;5.22;;;;;;;;;;5042521;28;20118;-80
2023/05/22 08:33:44;;;;;;;8.93;5.45;;;;;;;;;;5044702;28;20524;-80
2023/05/22 08:36:10;;;;;;;7.63;5.50;;;;;;;;;;5056310;28;20032;-80
2023/05/22 08:38:36;;;;;;;7.68;5.43;;;;;;;;;;5062213;28;20072;-80
2023/05/22 08:41:01;;;;;;;9.05;5.70;;;;;;;;;;5042513;28;20098;-80
2023/05/22 08:43:27;;;;;;;8.13;4.88;;;;;;;;;;5037370;28;20464;-80
2023/05/22 08:46:02;;;;;;;7.00;5.38;;;;;;;;;;5036776;28;20025;-80
2023/05/22 08:48:32;;;;;;;7.10;5.13;;;;;;;;;;5036241;28;20483;-81
2023/05/22 08:51:04;;;;;;;9.25;5.07;;;;;;;;;;5053088;28;20480;-80
2023/05/22 08:53:35;;;;;;;6.37;4.83;;;;;;;;;;5052618;28;20035;-80
2023/05/22 08:56:02;;;;;;;7.55;5.18;;;;;;;;;;5053797;28;20032;-80
2023/05/22 08:58:28;;;;;;;7.97;5.50;;;;;;;;;;5052009;28;20484;-79
2023/05/22 09:00:53;;;;;;;6.70;5.35;;;;;;;;;;5052581;28;20044;-80
2023/05/22 09:03:20;;;;;;;7.32;5.53;;;;;;;;;;5052197;28;20131;-80
2023/05/22 09:05:45;;;;;;;7.05;5.38;;;;;;;;;;5054121;28;20029;-79
2023/05/22 09:08:11;;;;;;;6.10;5.18;;;;;;;;;;5052581;28;20083;-79
2023/05/22 09:10:37;;;;;;;6.75;5.45;;;;;;;;;;5036352;28;20480;-80
2023/05/22 09:13:08;;;;;;;6.30;4.90;;;;;;;;;;5053416;28;20036;-80
2023/05/22 09:15:34;;;;;;;8.00;4.85;;;;;;;;;;5036653;28;20032;-79
2023/05/22 09:18:01;;;;;;;8.43;5.40;;;;;;;;;;5052705;28;20029;-79
2023/05/22 09:20:27;;;;;;;6.60;5.25;;;;;;;;;;5061882;28;20029;-79
2023/05/22 09:22:52;;;;;;;6.97;5.53;;;;;;;;;;5036386;28;20086;-80
2023/05/22 09:25:19;;;;;;;7.30;5.43;;;;;;;;;;5056135;28;20108;-80
2023/05/22 09:27:45;;;;;;;6.10;5.25;;;;;;;;;;5057328;28;20029;-80
2023/05/22 09:30:14;;;;;;;7.90;5.47;;;;;;;;;;5057206;28;20021;-81
2023/05/22 09:32:39;;;;;;;5.95;5.35;;;;;;;;;;5045336;28;20135;-80
2023/05/22 09:35:05;;;;;;;7.10;5.15;;;;;;;;;;5058222;28;20099;-80
2023/05/22 09:37:35;;;;;;;8.80;5.43;;;;;;;;;;5054017;28;20426;-80
2023/05/22 09:40:08;;;;;;;5.60;4.97;;;;;;;;;;5036171;28;20083;-80
2023/05/22 09:42:33;;;;;;;;;;;;;;;;;;5053514;28;20079;-79
2023/05/22 09:45:04;;;;;;;7.53;5.03;;;;;;;;;;5069181;28;20366;-80
2023/05/22 09:47:29;;;;;;;6.05;5.20;;;;;;;;;;5035750;28;20032;-80
2023/05/22 09:49:57;;;;;;;6.13;5.25;;;;;;;;;;5035338;28;20033;-80
2023/05/22 09:52:23;;;;;;;6.05;5.07;;;;;;;;;;5035849;28;20492;-79
2023/05/22 09:54:54;;;;;;;5.93;5.32;;;;;;;;;;5051631;28;20087;-80
2023/05/22 09:57:21;;;;;;;7.72;5.82;;;;;;;;;;5051577;28;20083;-80
2023/05/22 09:59:53;;;;;;;6.22;5.40;;;;;;;;;;5034104;28;20083;-80
2023/05/22 10:02:21;;;;;;;6.28;5.13;;;;;;;;;;5018862;28;20060;-79
2023/05/22 10:04:49;;;;;;;6.25;5.63;;;;;;;;;;5022049;28;20037;-78
2023/05/22 10:07:17;;;;;;;7.05;5.57;;;;;;;;;;5053948;28;20396;-78
2023/05/22 10:09:43;;;;;;;7.57;5.25;;;;;;;;;;5055062;28;20413;-78
2023/05/22 10:12:09;;;;;;;5.97;5.38;;;;;;;;;;5038434;28;20086;-81
2023/05/22 10:14:35;;;;;;;6.65;4.90;;;;;;;;;;5038342;28;20028;-81
2023/05/22 10:17:03;;;;;;;5.97;5.25;;;;;;;;;;5054839;28;20098;-81
2023/05/22 10:19:31;;;;;;;6.32;5.25;;;;;;;;;;5055196;28;20028;-79
2023/05/22 10:21:57;;;;;;;7.80;6.00;;;;;;;;;;5055398;28;20108;-81
2023/05/22 10:24:23;;;;;;;6.22;5.15;;;;;;;;;;5066331;28;20548;-79
2023/05/22 10:26:49;;;;;;;5.93;5.32;;;;;;;;;;5037875;28;20033;-78
2023/05/22 10:29:18;;;;;;;6.55;5.15;;;;;;;;;;5027652;28;20025;-79
2023/05/22 10:31:50;;;;;;;5.85;5.22;;;;;;;;;;5059343;28;20115;-79
2023/05/22 10:34:30;;;;;;;6.10;5.03;;;;;;;;;;5041433;28;20059;-81
2023/05/22 10:37:24;;;;;;;7.10;5.03;;;;;;;;;;5058447;28;20032;-80
2023/05/22 10:39:56;;;;;;;5.28;4.78;;;;;;;;;;5053872;28;20028;-81
2023/05/22 10:42:21;;;;;;;6.00;5.40;;;;;;;;;;5076269;28;20539;-80
2023/05/22 10:44:48;;;;;;;6.35;5.30;;;;;;;;;;5057840;28;20123;-79
2023/05/22 10:47:13;;;;;;;5.70;5.03;;;;;;;;;;5058577;28;20025;-79
2023/05/22 10:49:45;;;;;;;7.43;5.20;;;;;;;;;;5058688;28;20193;-79
2023/05/22 10:52:13;;;;;;;6.20;4.88;;;;;;;;;;5042409;28;20115;-80
2023/05/22 10:54:42;;;;;;;5.63;5.03;;;;;;;;;;5061770;28;20399;-77
2023/05/22 10:57:17;;;;;;;6.68;5.30;;;;;;;;;;5061766;28;20027;-80
2023/05/22 10:59:46;;;;;;;5.25;4.75;;;;;;;;;;5062606;28;20085;-79
2023/05/22 11:02:28;;;;;;;6.35;5.15;;;;;;;;;;5060429;28;20040;-79
2023/05/22 11:04:53;;;;;;;6.65;5.55;;;;;;;;;;5078546;28;20613;-80
2023/05/22 11:07:19;;;;;;;7.47;5.47;;;;;;;;;;5062085;28;20044;-80
2023/05/22 11:09:47;;;;;;;6.38;5.00;;;;;;;;;;5059445;28;20104;-80
2023/05/22 11:12:23;;;;;;;6.38;5.22;;;;;;;;;;5058627;28;20505;-80
2023/05/22 11:15:04;;;;;;;5.55;5.00;;;;;;;;;;5042194;28;20028;-80
2023/05/22 11:17:32;;;;;;;5.70;5.10;;;;;;;;;;5051588;28;20032;-81
2023/05/22 11:19:58;;;;;;;5.93;5.22;;;;;;;;;;5058217;28;20060;-81
2023/05/22 11:22:29;;;;;;;5.82;5.22;;;;;;;;;;5081014;28;20028;-80
2023/05/22 11:24:55;;;;;;;6.25;5.10;;;;;;;;;;5058421;28;20021;-79
2023/05/22 11:27:21;;;;;;;6.68;5.38;;;;;;;;;;5058829;28;20352;-81
2023/05/22 11:29:47;;;;;;;7.47;5.43;;;;;;;;;;5057793;28;20086;-81
2023/05/22 11:32:18;;;;;;;6.57;5.13;;;;;;;;;;5076318;28;20028;-81
2023/05/22 11:34:45;;;;;;;5.75;5.00;;;;;;;;;;5057740;28;20119;-81
2023/05/22 11:37:11;;;;;;;6.57;5.25;;;;;;;;;;5057775;28;20383;-80
2023/05/22 11:39:36;;;;;;;5.72;4.38;;;;;;;;;;5076140;28;20028;-81
2023/05/22 11:42:03;;;;;;;6.05;4.78;;;;;;;;;;5075773;28;20048;-81
2023/05/22 11:44:29;;;;;;;6.80;4.43;;;;;;;;;;5057996;28;20024;-81
2023/05/22 11:46:55;;;;;;;7.75;5.05;;;;;;;;;;5075462;28;20025;-80
2023/05/22 11:49:22;;;;;;;7.10;4.80;;;;;;;;;;5040914;28;20107;-81
2023/05/22 11:51:48;;;;;;;5.18;4.68;;;;;;;;;;5040996;28;20035;-80
2023/05/22 11:54:17;;;;;;;10.75;4.82;;;;;;;;;;5057689;28;20387;-80
2023/05/22 11:56:42;;;;;;;5.00;4.50;;;;;;;;;;5057720;28;20081;-79
2023/05/22 11:59:08;;;;;;;5.38;4.85;;;;;;;;;;5074993;28;20111;-82
2023/05/22 12:01:35;;;;;;;6.35;5.03;;;;;;;;;;5057358;28;20032;-81
2023/05/22 12:04:01;;;;;;;4.97;4.47;;;;;;;;;;5074843;28;20071;-81
2023/05/22 12:06:27;;;;;;;4.93;4.43;;;;;;;;;;5057533;28;20029;-81
2023/05/22 12:08:53;;;;;;;5.30;4.45;;;;;;;;;;5020460;28;20383;-81
2023/05/22 12:11:18;;;;;;;4.93;4.35;;;;;;;;;;5049178;28;20032;-81
2023/05/22 12:13:44;;;;;;;5.45;4.70;;;;;;;;;;5040258;28;20372;-81
2023/05/22 12:16:22;;;;;;;4.28;3.88;;;;;;;;;;5073853;28;20032;-82
2023/05/22 12:18:52;;;;;;;4.90;4.38;;;;;;;;;;5057412;28;20052;-82
2023/05/22 12:21:18;;;;;;;4.72;4.32;;;;;;;;;;5056437;28;20028;-82
2023/05/22 12:23:50;;;;;;;4.80;4.22;;;;;;;;;;5056713;28;20036;-81
2023/05/22 12:26:16;;;;;;;6.90;4.55;;;;;;;;;;5055679;28;20372;-81
2023/05/22 12:28:42;;;;;;;4.50;4.10;;;;;;;;;;5056603;28;20031;-80
2023/05/22 12:31:07;;;;;;;5.10;4.60;;;;;;;;;;5055854;28;20078;-80
2023/05/22 12:33:32;;;;;;;5.22;4.68;;;;;;;;;;5039898;28;20483;-80
2023/05/22 12:35:58;;;;;;;5.90;4.50;;;;;;;;;;5055929;28;20028;-81
2023/05/22 12:38:29;;;;;;;5.20;4.25;;;;;;;;;;5039248;28;20024;-80
2023/05/22 12:40:55;;;;;;;5.15;4.22;;;;;;;;;;5055931;28;20501;-81
2023/05/22 12:43:24;;;;;;;5.18;4.68;;;;;;;;;;5039578;28;20064;-81
2023/05/22 12:45:50;;;;;;;5.03;4.53;;;;;;;;;;5055931;28;20032;-81
2023/05/22 12:48:16;;;;;;;5.50;4.78;;;;;;;;;;5055321;28;20383;-82
2023/05/22 12:50:42;;;;;;;4.65;4.18;;;;;;;;;;5047461;28;20025;-81
2023/05/22 12:53:08;;;;;;;4.75;4.35;;;;;;;;;;5039315;28;20399;-81
2023/05/22 12:55:33;;;;;;;5.15;4.20;;;;;;;;;;5070514;28;20029;-81
2023/05/22 12:57:59;;;;;;;4.18;3.78;;;;;;;;;;5052689;28;20063;-81
2023/05/22 13:00:25;;;;;;;5.75;4.25;;;;;;;;;;5055636;28;20032;-81
2023/05/22 13:02:50;;;;;;;4.90;4.40;;;;;;;;;;5055768;28;20048;-81
2023/05/22 13:05:15;;;;;;;4.60;4.07;;;;;;;;;;5073210;28;20031;-81
2023/05/22 13:07:41;;;;;;;5.43;4.30;;;;;;;;;;5038833;28;20039;-80
2023/05/22 13:10:07;;;;;;;4.65;4.03;;;;;;;;;;5055644;28;20479;-80
2023/05/22 13:12:32;;;;;;;5.00;4.47;;;;;;;;;;5038810;28;20040;-80
2023/05/22 13:14:58;;;;;;;5.90;4.50;;;;;;;;;;5055506;28;20099;-80
2023/05/22 13:17:24;;;;;;;4.60;4.10;;;;;;;;;;5054823;28;20043;-79
2023/05/22 13:19:50;;;;;;;5.18;4.40;;;;;;;;;;5073489;28;20108;-79
2023/05/22 13:22:16;;;;;;;6.57;4.30;;;;;;;;;;5038530;28;20036;-79
2023/05/22 13:24:41;;;;;;;5.28;4.18;;;;;;;;;;5039116;28;20463;-80
2023/05/22 13:27:06;;;;;;;6.45;4.35;;;;;;;;;;5054961;28;20498;-80
2023/05/22 13:29:32;;;;;;;5.15;4.40;;;;;;;;;;5055401;28;20032;-80
2023/05/22 13:31:58;;;;;;;4.32;3.90;;;;;;;;;;5055788;28;20044;-80
2023/05/22 13:34:23;;;;;;;4.93;4.25;;;;;;;;;;5058605;28;20360;-81
2023/05/22 13:36:49;;;;;;;5.72;4.43;;;;;;;;;;5055987;28;20037;-81
2023/05/22 13:39:15;;;;;;;6.18;4.70;;;;;;;;;;5073337;28;20032;-80
2023/05/22 13:41:40;;;;;;;4.82;3.58;;;;;;;;;;5055356;28;20032;-81
2023/05/22 13:44:06;;;;;;;6.65;4.20;;;;;;;;;;5055390;28;20029;-81
2023/05/22 13:46:31;;;;;;;4.25;3.85;;;;;;;;;;5055320;28;20040;-81
2023/05/22 13:48:56;;;;;;;5.55;3.90;;;;;;;;;;5073261;28;20025;-81
2023/05/22 13:51:22;;;;;;;7.00;4.38;;;;;;;;;;5055696;28;20064;-80
2023/05/22 13:53:47;;;;;;;5.47;3.95;;;;;;;;;;5073707;28;20060;-80
2023/05/22 13:56:13;;;;;;;5.43;4.20;;;;;;;;;;5038730;28;20039;-80
2023/05/22 13:58:38;;;;;;;6.45;4.05;;;;;;;;;;5055234;28;20074;-81
2023/05/22 14:01:03;;;;;;;6.03;4.10;;;;;;;;;;5077247;28;20040;-82
2023/05/22 14:03:29;;;;;;;5.00;4.28;;;;;;;;;;5078048;28;20054;-82
2023/05/22 14:05:55;;;;;;;4.65;4.15;;;;;;;;;;5060836;28;20380;-80
2023/05/22 14:08:20;;;;;;;6.15;4.38;;;;;;;;;;5043209;28;20081;-80
2023/05/22 14:10:45;;;;;;;4.55;3.83;;;;;;;;;;5059732;28;20032;-80
2023/05/22 14:13:11;;;;;;;5.38;3.90;;;;;;;;;;5042631;28;20020;-82
2023/05/22 14:15:36;;;;;;;6.00;3.92;;;;;;;;;;5042588;28;20039;-82
2023/05/22 14:18:02;;;;;;;4.78;3.78;;;;;;;;;;5042635;28;20576;-80
2023/05/22 14:20:27;;;;;;;5.05;4.25;;;;;;;;;;5059521;28;20117;-78
2023/05/22 14:22:53;;;;;;;3.88;3.50;;;;;;;;;;5059766;28;20067;-81
2023/05/22 14:25:18;;;;;;;5.03;3.95;;;;;;;;;;5059530;28;20024;-80
2023/05/22 14:27:43;;;;;;;7.40;3.90;;;;;;;;;;5045246;28;20472;-80
2023/05/22 14:30:12;;;;;;;4.18;3.65;;;;;;;;;;5081755;28;20077;-81
2023/05/22 14:32:38;;;;;;;4.53;4.05;;;;;;;;;;5064239;28;20052;-80
2023/05/22 14:35:04;;;;;;;5.88;4.10;;;;;;;;;;5083852;28;20032;-80
2023/05/22 14:37:30;;;;;;;4.28;3.88;;;;;;;;;;5063310;28;20430;-80